Terminal Aerodrome Forecast
Issued by NWS Charleston, WV

Current Version | Previous Version | Graphics & Text | Print | Product List | Glossary On
Versions: 1 2 3 4 5 6 7 8 9 10 11 12 13 14 15 16 17 18 19 20 21 22 23 24 25 26
000
FTUS41 KRLX 061700 RRA
TAFHTS
TAF
KHTS 061744Z 0618/0718 22002KT P6SM SCT020
      TEMPO 0618/0620 BKN020
     FM062300 19002KT P6SM SCT200
     FM071200 24004KT P6SM SCT120=

USA.gov is the U.S. government's official web portal to all federal, state and local government web resources and services.